Aeroboteco Virtual Airlines! Uma nuvem a frente.



 INFORMAÇÕES METEOROLÓGICAS
METAR FOR HEPS
ADDS - METARS form results

(0504 UTC 28 October 2020)
Data provider http://aviationweather.gov/metar/data/
 
Forecast for: HEPS (PORT SAID , EG)
Text: TAF HEPS 280500Z 2806/2912 02010KT 9999 STC025
Forecast period: 0600 UTC 28 October 2020 to 1200 UTC 29 October 2020
Forecast type: FROM: standard forecast or significant change
Winds: from the NNE (20 degrees) at 12 MPH (10 knots; 5.1 m/s)
Visibility: 6 or more miles (10+ km)
Ceiling: unknown
Clouds: missing
Weather: no significant weather forecast for this period

 MAPA DO AEROPORTO

 INFORMAÇÕES DA PISTA
Pista 10 Tamanho da pista 7707 ft Largura da pista 148 ft
Elevação da pista 8 ft Ranhura da pista 0 ft Proa da pista 106
Pista 28 Tamanho da pista 7707 ft Largura da pista 148 ft
Elevação da pista 5 ft Ranhura da pista 0 ft Proa da pista 286

 FREQUÊNCIAS DO AEROPORTO
Tipo RDO Nome RDO Frequência 579 MHZ
Tipo TWR Nome TWR Frequência 120.7 MHZ

 AUXÍLIOS DE NAVEGAÇÃO PRÓXIMOS AO AEROPORTO
Tipo VOR-DME Nome Port Said Frequência 112700 KHZ